Time;durP1;ratioP1;P1;durP2;ratioP2;P2;SDS_P1;SDS_P2;PMS_P1;PMS_P2;Temp;Humidity;BMP_temperature;BMP_pressure;BME280_temperature;BME280_humidity;BME280_pressure;Samples;Min_cycle;Max_cycle;Signal;HPM_P1;HPM_P2
2023/03/11 00:01:27;;;;;;;16.83;4.70;;;8.80;99.90;;;;;;5009577;28;20065;-63
2023/03/11 00:03:53;;;;;;;12.50;4.07;;;8.70;99.90;;;;;;5009442;28;20033;-63
2023/03/11 00:06:19;;;;;;;12.13;3.77;;;8.60;99.90;;;;;;5009542;28;20034;-64
2023/03/11 00:08:44;;;;;;;7.17;3.27;;;8.60;99.90;;;;;;5025887;28;20033;-63
2023/03/11 00:11:11;;;;;;;12.33;4.30;;;8.70;99.90;;;;;;5049046;28;20091;-63
2023/03/11 00:13:36;;;;;;;8.85;3.47;;;8.70;99.90;;;;;;5035040;28;20056;-63
2023/03/11 00:16:02;;;;;;;9.63;3.60;;;8.60;99.90;;;;;;5029108;28;20037;-62
2023/03/11 00:18:30;;;;;;;11.65;3.47;;;8.60;99.90;;;;;;5029112;28;20532;-63
2023/03/11 00:20:57;;;;;;;11.05;3.30;;;8.70;99.90;;;;;;5028937;28;20033;-63
2023/03/11 00:23:24;;;;;;;13.18;3.85;;;8.60;99.90;;;;;;5028794;28;20083;-63
2023/03/11 00:25:50;;;;;;;13.90;3.80;;;8.60;99.90;;;;;;5029001;28;20493;-63
2023/03/11 00:28:16;;;;;;;14.27;5.73;;;8.60;99.90;;;;;;5029605;28;20041;-63
2023/03/11 00:30:44;;;;;;;145.67;54.47;;;8.70;99.90;;;;;;5029255;28;20040;-63
2023/03/11 00:33:11;;;;;;;291.38;114.72;;;8.80;99.90;;;;;;5028859;28;20052;-61
2023/03/11 00:35:37;;;;;;;153.20;66.78;;;8.70;99.90;;;;;;5028607;28;20026;-63
2023/03/11 00:38:07;;;;;;;13.73;6.37;;;8.70;99.90;;;;;;5028799;28;20144;-63
2023/03/11 00:40:35;;;;;;;12.07;4.90;;;8.60;99.90;;;;;;5028074;28;20037;-63
2023/03/11 00:43:01;;;;;;;14.45;4.25;;;8.60;99.90;;;;;;5027346;28;20032;-62
2023/03/11 00:45:28;;;;;;;10.00;3.47;;;8.60;99.90;;;;;;5028317;28;20048;-62
2023/03/11 00:47:54;;;;;;;7.78;3.55;;;8.50;99.90;;;;;;5027949;28;20095;-63
2023/03/11 00:50:32;;;;;;;10.73;3.03;;;8.50;99.90;;;;;;5028207;28;20029;-62
2023/03/11 00:52:58;;;;;;;13.50;3.50;;;8.50;99.90;;;;;;5028224;28;20048;-63
2023/03/11 00:55:29;;;;;;;10.95;3.67;;;8.50;99.90;;;;;;5028196;28;20043;-62
2023/03/11 00:57:57;;;;;;;19.70;7.72;;;8.50;99.90;;;;;;5028020;28;20029;-63
2023/03/11 01:00:24;;;;;;;23.15;9.25;;;8.60;99.90;;;;;;5028368;28;20025;-63
2023/03/11 01:02:51;;;;;;;21.52;10.10;;;8.60;99.90;;;;;;5038083;28;20028;-64
2023/03/11 01:05:22;;;;;;;25.25;11.52;;;8.60;99.90;;;;;;5034343;28;20026;-63
2023/03/11 01:07:48;;;;;;;22.45;10.52;;;8.60;99.90;;;;;;5018913;28;20029;-63
2023/03/11 01:10:14;;;;;;;31.35;12.55;;;8.70;99.90;;;;;;5027970;28;20100;-63
2023/03/11 01:12:40;;;;;;;15.15;7.32;;;8.70;99.90;;;;;;5027254;28;20048;-63
2023/03/11 01:15:15;;;;;;;18.20;7.37;;;8.70;99.90;;;;;;5027322;28;20048;-63
2023/03/11 01:17:41;;;;;;;15.07;7.00;;;8.70;99.90;;;;;;5027738;28;20260;-63
2023/03/11 01:20:07;;;;;;;14.20;6.63;;;8.70;99.90;;;;;;5027800;28;20036;-63
2023/03/11 01:22:34;;;;;;;16.13;6.75;;;8.60;99.90;;;;;;5027245;28;20326;-62
2023/03/11 01:24:59;;;;;;;13.40;6.60;;;8.50;99.90;;;;;;5027969;28;20033;-62
2023/03/11 01:27:25;;;;;;;12.60;5.93;;;8.60;99.90;;;;;;5027112;28;20576;-63
2023/03/11 01:29:51;;;;;;;12.13;4.93;;;8.50;99.90;;;;;;5027180;28;20025;-62
2023/03/11 01:32:16;;;;;;;8.43;4.03;;;8.40;99.90;;;;;;5035457;28;20049;-61
2023/03/11 01:34:42;;;;;;;11.93;5.23;;;8.40;99.90;;;;;;5047237;28;20028;-63
2023/03/11 01:37:07;;;;;;;13.93;5.17;;;8.20;99.90;;;;;;5047215;28;20063;-62
2023/03/11 01:39:34;;;;;;;11.20;5.33;;;8.10;99.90;;;;;;5032796;28;20044;-63
2023/03/11 01:41:59;;;;;;;8.27;4.00;;;8.10;99.90;;;;;;5027419;28;20412;-63
2023/03/11 01:44:25;;;;;;;10.33;3.73;;;8.10;99.90;;;;;;5026876;28;20029;-63
2023/03/11 01:46:51;;;;;;;12.57;4.07;;;7.90;99.90;;;;;;5026562;28;20080;-63
2023/03/11 01:49:17;;;;;;;13.37;3.40;;;7.90;99.90;;;;;;5027263;28;20104;-63
2023/03/11 01:51:56;;;;;;;10.30;4.72;;;8.10;99.90;;;;;;5027785;28;20494;-63
2023/03/11 01:54:29;;;;;;;7.72;3.90;;;8.10;99.90;;;;;;5027505;28;20123;-63
2023/03/11 01:56:55;;;;;;;10.80;3.97;;;7.90;99.90;;;;;;5027697;28;20056;-63
2023/03/11 01:59:25;;;;;;;11.48;4.38;;;7.90;99.90;;;;;;5027601;28;20064;-63
2023/03/11 02:02:05;;;;;;;18.25;4.57;;;8.00;99.90;;;;;;5034193;28;20060;-63
2023/03/11 02:04:33;;;;;;;7.53;4.18;;;8.00;99.90;;;;;;5046479;28;20033;-63
2023/03/11 02:07:00;;;;;;;5.30;3.50;;;8.00;99.90;;;;;;5046034;28;20024;-63
2023/03/11 02:09:25;;;;;;;8.90;3.35;;;7.90;99.90;;;;;;5046343;28;20531;-63
2023/03/11 02:11:51;;;;;;;9.23;3.90;;;7.90;99.90;;;;;;5046381;28;20036;-63
2023/03/11 02:14:18;;;;;;;8.70;4.28;;;7.80;99.90;;;;;;5046822;28;20036;-63
2023/03/11 02:16:43;;;;;;;10.32;3.65;;;7.70;99.90;;;;;;5046928;28;20504;-62
2023/03/11 02:19:25;;;;;;;8.40;4.17;;;7.90;99.90;;;;;;5047013;28;20061;-63
2023/03/11 02:21:51;;;;;;;9.18;3.88;;;8.00;99.90;;;;;;5047052;28;20099;-63
2023/03/11 02:24:52;;;;;;;6.93;3.63;;;8.00;99.90;;;;;;5045369;28;20052;-62
2023/03/11 02:27:20;;;;;;;9.90;4.20;;;8.00;99.90;;;;;;5039065;28;20507;-63
2023/03/11 02:29:50;;;;;;;10.95;4.63;;;8.10;99.90;;;;;;5026931;28;20043;-63
2023/03/11 02:32:16;;;;;;;8.80;4.00;;;8.00;99.90;;;;;;5025665;28;20433;-62
2023/03/11 02:34:42;;;;;;;;;;;8.10;99.90;;;;;;5026845;28;20038;-63
2023/03/11 02:37:11;;;;;;;7.32;4.20;;;8.00;99.90;;;;;;5026199;28;19917;-63
2023/03/11 02:39:42;;;;;;;10.68;6.10;;;8.30;99.90;;;;;;5026593;28;20057;-63
2023/03/11 02:42:11;;;;;;;7.53;4.35;;;8.40;99.90;;;;;;5027020;28;20030;-63
2023/03/11 02:44:38;;;;;;;10.35;3.88;;;8.40;99.90;;;;;;5026610;28;20029;-63
2023/03/11 02:47:04;;;;;;;10.75;3.38;;;8.50;99.90;;;;;;5026761;28;20065;-62
2023/03/11 02:49:30;;;;;;;11.50;3.95;;;8.50;99.90;;;;;;5026399;28;20117;-62
2023/03/11 02:51:56;;;;;;;;;;;8.50;99.90;;;;;;5026597;28;20033;-63
2023/03/11 02:54:21;;;;;;;9.63;3.42;;;8.50;99.90;;;;;;5026258;28;20004;-63
2023/03/11 02:56:47;;;;;;;9.83;3.17;;;8.50;99.90;;;;;;5026236;28;20116;-63
2023/03/11 02:59:13;;;;;;;8.33;3.40;;;8.60;99.90;;;;;;5026986;28;20025;-62
2023/03/11 03:01:38;;;;;;;8.37;3.60;;;8.60;99.90;;;;;;5035133;28;20045;-63
2023/03/11 03:04:04;;;;;;;6.13;3.40;;;8.60;99.90;;;;;;5046207;28;20040;-63
2023/03/11 03:06:29;;;;;;;6.83;3.87;;;8.50;99.90;;;;;;5046642;28;20036;-63
2023/03/11 03:08:55;;;;;;;8.47;3.63;;;8.50;99.90;;;;;;5050084;28;20832;-63
2023/03/11 03:11:21;;;;;;;7.30;3.60;;;8.40;99.90;;;;;;5050023;28;20087;-63
2023/03/11 03:13:46;;;;;;;6.03;3.53;;;8.50;99.90;;;;;;5032944;28;20041;-63
2023/03/11 03:16:12;;;;;;;6.50;3.60;;;8.50;99.90;;;;;;5027962;28;20172;-63
2023/03/11 03:18:38;;;;;;;9.70;3.87;;;8.50;99.90;;;;;;5028000;28;20521;-63
2023/03/11 03:21:04;;;;;;;7.60;3.37;;;8.40;99.90;;;;;;5027724;28;20036;-62
2023/03/11 03:23:34;;;;;;;11.23;3.55;;;8.30;99.90;;;;;;5029438;28;20061;-63
2023/03/11 03:26:00;;;;;;;7.28;3.53;;;8.30;99.90;;;;;;5028661;28;20045;-63
2023/03/11 03:28:27;;;;;;;5.60;3.38;;;8.40;99.90;;;;;;5028267;28;20067;-63
2023/03/11 03:30:52;;;;;;;6.40;3.53;;;8.50;99.90;;;;;;5030258;28;20028;-63
2023/03/11 03:33:18;;;;;;;8.17;3.53;;;8.50;99.90;;;;;;5028713;28;20420;-64
2023/03/11 03:35:44;;;;;;;8.73;4.07;;;8.40;99.90;;;;;;5027047;28;20029;-63
2023/03/11 03:38:11;;;;;;;6.15;3.00;;;8.30;99.90;;;;;;5027152;28;20033;-63
2023/03/11 03:40:37;;;;;;;7.00;3.45;;;8.20;99.90;;;;;;5028421;28;20068;-62
2023/03/11 03:43:03;;;;;;;10.82;3.70;;;8.40;99.90;;;;;;5028691;28;20428;-63
2023/03/11 03:45:29;;;;;;;6.88;3.15;;;8.30;99.90;;;;;;5028088;28;20049;-62
2023/03/11 03:47:54;;;;;;;9.20;4.10;;;8.30;99.90;;;;;;5027847;28;20033;-63
2023/03/11 03:50:20;;;;;;;5.17;3.37;;;8.30;99.90;;;;;;5028079;28;20026;-63
2023/03/11 03:52:46;;;;;;;7.20;3.47;;;8.30;99.90;;;;;;5027552;28;20042;-63
2023/03/11 03:55:12;;;;;;;6.22;2.92;;;8.20;99.90;;;;;;5028093;28;20032;-62
2023/03/11 03:57:37;;;;;;;7.33;3.03;;;8.20;99.90;;;;;;5026976;28;20037;-62
2023/03/11 04:00:07;;;;;;;8.67;3.70;;;8.30;99.90;;;;;;5027513;28;20033;-63
2023/03/11 04:02:33;;;;;;;18.27;3.63;;;8.00;99.90;;;;;;5030539;28;20052;-62
2023/03/11 04:04:59;;;;;;;6.17;3.70;;;8.20;99.90;;;;;;5026990;28;20386;-62
2023/03/11 04:07:24;;;;;;;4.47;3.40;;;8.30;99.90;;;;;;5027536;28;20104;-62
2023/03/11 04:09:50;;;;;;;8.07;4.03;;;8.40;99.90;;;;;;5026983;28;20434;-63
2023/03/11 04:12:18;;;;;;;9.50;4.43;;;8.30;99.90;;;;;;5027654;28;20041;-62
2023/03/11 04:14:44;;;;;;;10.73;4.80;;;8.40;99.90;;;;;;5026974;28;20061;-62
2023/03/11 04:17:11;;;;;;;10.53;5.27;;;8.30;99.90;;;;;;5027207;28;20075;-62
2023/03/11 04:19:37;;;;;;;8.75;4.30;;;8.30;99.90;;;;;;5026873;28;20037;-62
2023/03/11 04:22:03;;;;;;;5.85;3.40;;;8.40;99.90;;;;;;5027497;28;20453;-62
2023/03/11 04:24:29;;;;;;;8.15;4.28;;;8.40;99.90;;;;;;5028284;28;20509;-62
2023/03/11 04:26:54;;;;;;;8.57;4.90;;;8.50;99.90;;;;;;5027614;28;20397;-62
2023/03/11 04:29:20;;;;;;;9.50;3.90;;;8.50;99.90;;;;;;5027328;28;20044;-63
2023/03/11 04:31:45;;;;;;;8.77;3.87;;;8.60;99.90;;;;;;5028079;28;20583;-62
2023/03/11 04:34:11;;;;;;;7.40;3.30;;;8.60;99.90;;;;;;5027711;28;20567;-62
2023/03/11 04:36:37;;;;;;;8.60;4.43;;;8.60;99.90;;;;;;5027575;28;20033;-63
2023/03/11 04:39:02;;;;;;;7.47;3.60;;;8.50;99.90;;;;;;5028147;28;20029;-62
2023/03/11 04:41:28;;;;;;;9.27;3.90;;;8.60;99.90;;;;;;5027635;28;20061;-62
2023/03/11 04:43:53;;;;;;;9.80;4.37;;;8.60;99.90;;;;;;5026722;28;20116;-62
2023/03/11 04:46:19;;;;;;;8.10;3.60;;;8.40;99.90;;;;;;5026864;28;20433;-62
2023/03/11 04:48:45;;;;;;;6.83;4.00;;;8.50;99.90;;;;;;5026409;28;20025;-63
2023/03/11 04:51:10;;;;;;;6.13;3.33;;;8.60;99.90;;;;;;5026939;28;20056;-63
2023/03/11 04:53:36;;;;;;;9.70;3.93;;;8.60;99.90;;;;;;5022993;28;20049;-63
2023/03/11 04:56:01;;;;;;;9.13;4.00;;;8.50;99.90;;;;;;5026194;28;20060;-62
2023/03/11 04:58:27;;;;;;;6.90;3.60;;;8.50;99.90;;;;;;5027648;28;20108;-63
2023/03/11 05:00:53;;;;;;;8.67;3.83;;;8.50;99.90;;;;;;5027415;28;20060;-62
2023/03/11 05:03:18;;;;;;;8.32;3.42;;;8.40;99.90;;;;;;5027581;28;20875;-63
2023/03/11 05:05:44;;;;;;;6.17;3.47;;;8.60;99.90;;;;;;5027453;28;20501;-62
2023/03/11 05:08:10;;;;;;;6.77;3.23;;;8.50;99.90;;;;;;5026501;28;20528;-63
2023/03/11 05:10:36;;;;;;;9.07;3.20;;;8.40;99.90;;;;;;5027477;28;20284;-63
2023/03/11 05:13:01;;;;;;;6.87;2.50;;;8.50;99.90;;;;;;5027719;28;20292;-62
2023/03/11 05:15:30;;;;;;;7.73;3.00;;;8.50;99.90;;;;;;5027706;28;20389;-63
2023/03/11 05:17:55;;;;;;;7.60;3.20;;;8.50;99.90;;;;;;5026117;28;20284;-63
2023/03/11 05:20:21;;;;;;;9.38;3.75;;;8.20;99.90;;;;;;5026237;28;20035;-63
2023/03/11 05:22:47;;;;;;;7.10;3.70;;;8.20;99.90;;;;;;5026876;28;20022;-61
2023/03/11 05:25:13;;;;;;;7.35;3.72;;;8.30;99.90;;;;;;5026819;28;20064;-63
2023/03/11 05:27:38;;;;;;;10.20;4.83;;;8.50;99.90;;;;;;5026435;28;20657;-63
2023/03/11 05:30:05;;;;;;;8.50;4.90;;;8.50;99.90;;;;;;5026916;28;20390;-62
2023/03/11 05:32:30;;;;;;;9.98;5.47;;;8.30;99.90;;;;;;5026324;28;20045;-63
2023/03/11 05:34:56;;;;;;;10.27;4.77;;;8.40;99.90;;;;;;5025756;28;20410;-62
2023/03/11 05:37:22;;;;;;;9.63;5.00;;;8.50;99.90;;;;;;5027049;28;20025;-64
2023/03/11 05:39:47;;;;;;;11.53;5.50;;;8.50;99.90;;;;;;5025622;28;20076;-63
2023/03/11 05:42:13;;;;;;;8.57;4.20;;;8.50;99.90;;;;;;5026348;28;20037;-63
2023/03/11 05:44:40;;;;;;;9.93;5.40;;;8.40;99.90;;;;;;5025727;28;20291;-63
2023/03/11 05:47:05;;;;;;;11.00;4.68;;;8.50;99.90;;;;;;5026133;28;20515;-63
2023/03/11 05:49:31;;;;;;;15.03;5.20;;;8.50;99.90;;;;;;5025882;28;20037;-64
2023/03/11 05:51:57;;;;;;;11.00;5.33;;;8.50;99.90;;;;;;5026270;28;20110;-63
2023/03/11 05:54:23;;;;;;;11.45;4.93;;;8.50;99.90;;;;;;5027001;28;20121;-63
2023/03/11 05:56:48;;;;;;;7.40;4.77;;;8.50;99.90;;;;;;5026664;28;20037;-63
2023/03/11 05:59:15;;;;;;;8.95;5.13;;;8.40;99.90;;;;;;5027019;28;20457;-63
2023/03/11 06:01:42;;;;;;;10.00;5.50;;;8.40;99.90;;;;;;5026400;28;20029;-63
2023/03/11 06:04:08;;;;;;;9.90;5.68;;;8.50;99.90;;;;;;5025400;28;20025;-62
2023/03/11 06:06:33;;;;;;;8.23;5.90;;;8.50;99.90;;;;;;5026567;28;20088;-62
2023/03/11 06:08:59;;;;;;;8.40;4.83;;;8.50;99.90;;;;;;5026227;28;20113;-63
2023/03/11 06:11:25;;;;;;;7.78;3.70;;;8.50;99.90;;;;;;5028106;28;20834;-63
2023/03/11 06:13:56;;;;;;;5.35;3.10;;;8.50;99.90;;;;;;5033372;28;20092;-62
2023/03/11 06:16:22;;;;;;;5.70;2.70;;;8.50;99.90;;;;;;5028173;28;20017;-63
2023/03/11 06:18:48;;;;;;;3.92;2.65;;;8.50;99.90;;;;;;5027797;28;20034;-62
2023/03/11 06:21:22;;;;;;;5.30;3.97;;;8.60;99.90;;;;;;5030945;28;20559;-63
2023/03/11 06:23:49;;;;;;;3.38;2.10;;;8.40;99.90;;;;;;5031007;28;20054;-62
2023/03/11 06:26:19;;;;;;;2.88;1.88;;;8.40;99.90;;;;;;5029145;28;20103;-62
2023/03/11 06:28:46;;;;;;;4.85;2.45;;;8.40;99.90;;;;;;5026608;28;20120;-63
2023/03/11 06:31:25;;;;;;;3.75;1.90;;;8.40;99.90;;;;;;5025570;28;20481;-63
2023/03/11 06:33:50;;;;;;;2.65;1.40;;;8.30;99.90;;;;;;5025898;28;20033;-63
2023/03/11 06:36:18;;;;;;;5.07;1.70;;;8.30;99.90;;;;;;5026069;28;20079;-63
2023/03/11 06:38:45;;;;;;;4.75;1.58;;;8.30;99.90;;;;;;5027416;28;20567;-62
2023/03/11 06:41:12;;;;;;;3.22;1.33;;;8.30;99.90;;;;;;5026076;28;20036;-62
2023/03/11 06:43:37;;;;;;;;;;;8.20;99.90;;;;;;5031350;28;20033;-63
2023/03/11 06:46:15;;;;;;;3.22;1.33;;;8.30;99.90;;;;;;5029127;28;19971;-63
2023/03/11 06:48:41;;;;;;;3.05;1.20;;;8.30;99.90;;;;;;5024564;28;20052;-63
2023/03/11 06:51:06;;;;;;;2.63;1.10;;;8.40;99.90;;;;;;5029404;28;20042;-63
2023/03/11 06:53:32;;;;;;;1.27;0.87;;;8.40;99.90;;;;;;5029764;28;20049;-63
2023/03/11 06:56:11;;;;;;;2.83;1.33;;;8.40;99.90;;;;;;5030166;28;20849;-62
2023/03/11 06:58:38;;;;;;;2.47;1.55;;;8.40;99.90;;;;;;5026230;28;20056;-62
2023/03/11 07:01:06;;;;;;;3.15;1.20;;;8.50;99.90;;;;;;5029656;28;20037;-63
2023/03/11 07:03:31;;;;;;;2.88;1.70;;;8.60;99.90;;;;;;5032462;28;20573;-63
2023/03/11 07:05:58;;;;;;;3.15;1.95;;;8.60;99.90;;;;;;5025633;28;20060;-64
2023/03/11 07:08:24;;;;;;;1.73;1.60;;;8.60;99.90;;;;;;5028431;28;20120;-64
2023/03/11 07:11:07;;;;;;;3.95;2.00;;;8.50;99.90;;;;;;5029613;28;20670;-63
2023/03/11 07:13:33;;;;;;;4.78;1.92;;;8.60;99.90;;;;;;5034092;28;20048;-64
2023/03/11 07:16:14;;;;;;;1.95;1.70;;;8.60;99.90;;;;;;5027404;28;20066;-63
2023/03/11 07:18:40;;;;;;;3.63;1.83;;;8.70;99.90;;;;;;5020338;28;20405;-61
2023/03/11 07:21:07;;;;;;;1.58;1.38;;;8.80;99.90;;;;;;5029463;28;20041;-64
2023/03/11 07:23:33;;;;;;;;;;;8.80;99.90;;;;;;5030025;28;20402;-63
2023/03/11 07:25:59;;;;;;;2.35;1.48;;;8.90;99.90;;;;;;5033030;28;19920;-64
2023/03/11 07:28:26;;;;;;;3.03;1.70;;;9.00;99.90;;;;;;5030492;28;20477;-64
2023/03/11 07:30:52;;;;;;;2.50;1.52;;;9.00;99.90;;;;;;5033149;28;20037;-63
2023/03/11 07:33:19;;;;;;;2.05;1.85;;;9.00;99.90;;;;;;5030411;28;20421;-63
2023/03/11 07:35:45;;;;;;;1.40;1.17;;;9.10;99.90;;;;;;5029600;28;20067;-63
2023/03/11 07:38:11;;;;;;;2.05;1.83;;;9.20;99.90;;;;;;5030270;28;20052;-63
2023/03/11 07:40:37;;;;;;;3.53;2.50;;;9.30;99.90;;;;;;5031321;28;20120;-60
2023/03/11 07:43:03;;;;;;;3.77;2.17;;;9.10;99.90;;;;;;5030458;28;20108;-64
2023/03/11 07:45:28;;;;;;;6.38;2.03;;;9.10;99.90;;;;;;5034343;28;20167;-63
2023/03/11 07:47:54;;;;;;;2.87;2.20;;;9.10;99.90;;;;;;5027790;28;20116;-62
2023/03/11 07:50:22;;;;;;;3.63;2.80;;;9.30;99.90;;;;;;5028878;28;20572;-64
2023/03/11 07:52:48;;;;;;;2.80;2.50;;;9.40;99.90;;;;;;5028211;28;20045;-63
2023/03/11 07:55:14;;;;;;;4.22;2.00;;;9.40;99.90;;;;;;5027513;28;20061;-64
2023/03/11 07:57:40;;;;;;;2.33;1.80;;;9.20;99.90;;;;;;5030278;28;20038;-63
2023/03/11 08:00:06;;;;;;;2.03;1.63;;;9.30;99.90;;;;;;5030569;28;20099;-63
2023/03/11 08:02:32;;;;;;;2.25;1.85;;;9.40;99.90;;;;;;5029119;28;20037;-63
2023/03/11 08:04:57;;;;;;;2.40;2.13;;;9.40;99.90;;;;;;5031830;28;20440;-62
2023/03/11 08:07:23;;;;;;;3.93;2.10;;;9.30;99.90;;;;;;5026761;28;20065;-62
2023/03/11 08:09:48;;;;;;;3.57;2.47;;;9.40;99.90;;;;;;5028147;28;20033;-63
2023/03/11 08:12:15;;;;;;;3.93;3.10;;;9.50;99.90;;;;;;5025111;28;20450;-64
2023/03/11 08:14:42;;;;;;;4.25;3.40;;;9.60;99.90;;;;;;5034275;28;20378;-63
2023/03/11 08:17:08;;;;;;;5.10;3.60;;;9.70;99.90;;;;;;5028452;28;20033;-64
2023/03/11 08:19:34;;;;;;;5.75;3.78;;;9.70;99.90;;;;;;5023072;28;20030;-63
2023/03/11 08:22:03;;;;;;;8.37;4.20;;;9.60;99.90;;;;;;5025121;28;20108;-64
2023/03/11 08:24:29;;;;;;;5.85;4.18;;;9.60;99.90;;;;;;5028310;28;20549;-64
2023/03/11 08:26:55;;;;;;;6.63;3.80;;;9.70;99.90;;;;;;5028552;28;20101;-63
2023/03/11 08:29:22;;;;;;;4.55;3.30;;;9.70;99.90;;;;;;5028075;28;20238;-63
2023/03/11 08:31:48;;;;;;;3.22;2.25;;;9.70;99.90;;;;;;5027031;28;20091;-63
2023/03/11 08:34:14;;;;;;;6.53;3.13;;;9.60;99.90;;;;;;5026083;28;20633;-65
2023/03/11 08:36:39;;;;;;;4.15;2.92;;;9.60;99.90;;;;;;5040784;28;20095;-64
2023/03/11 08:39:05;;;;;;;2.87;2.13;;;9.40;99.90;;;;;;5029551;28;20030;-64
2023/03/11 08:41:31;;;;;;;3.08;2.58;;;9.50;99.90;;;;;;5033346;28;20056;-64
2023/03/11 08:43:57;;;;;;;6.07;3.10;;;9.70;99.90;;;;;;5030509;28;20029;-64
2023/03/11 08:46:28;;;;;;;5.43;3.03;;;9.80;99.90;;;;;;5027737;28;20033;-64
2023/03/11 08:48:55;;;;;;;4.78;3.20;;;9.80;99.90;;;;;;5029642;28;20109;-64
2023/03/11 08:51:23;;;;;;;3.35;2.40;;;9.90;99.90;;;;;;5027662;28;20033;-63
2023/03/11 08:53:49;;;;;;;2.75;1.73;;;10.00;99.90;;;;;;5025649;28;20041;-63
2023/03/11 08:56:15;;;;;;;3.15;1.75;;;10.00;99.90;;;;;;5026309;28;20026;-63
2023/03/11 08:58:41;;;;;;;3.15;1.83;;;10.10;99.90;;;;;;5030242;28;20131;-63
2023/03/11 09:01:08;;;;;;;4.50;2.13;;;10.20;99.90;;;;;;5026110;28;20560;-63
2023/03/11 09:03:34;;;;;;;2.85;2.08;;;10.40;99.90;;;;;;5027782;28;20501;-63
2023/03/11 09:06:01;;;;;;;;;;;10.50;99.90;;;;;;5029728;28;20030;-63
2023/03/11 09:08:27;;;;;;;4.45;2.17;;;10.50;99.90;;;;;;5033005;28;19917;-62
2023/03/11 09:10:52;;;;;;;2.75;1.90;;;10.50;99.90;;;;;;5025774;28;20387;-61
2023/03/11 09:13:18;;;;;;;4.47;2.40;;;10.70;99.90;;;;;;5028955;28;20037;-63
2023/03/11 09:15:44;;;;;;;2.28;1.92;;;10.80;99.90;;;;;;5017504;28;20883;-63
2023/03/11 09:18:12;;;;;;;3.30;2.07;;;10.80;99.90;;;;;;5020060;28;20413;-62
2023/03/11 09:20:38;;;;;;;3.88;2.00;;;10.90;99.90;;;;;;5026217;28;20064;-63
2023/03/11 09:23:04;;;;;;;4.55;2.70;;;11.10;99.90;;;;;;5031468;28;20044;-64
2023/03/11 09:25:30;;;;;;;3.15;2.50;;;11.10;99.90;;;;;;5027035;28;20026;-64
2023/03/11 09:27:55;;;;;;;1.90;1.80;;;11.20;99.90;;;;;;5026550;28;20045;-63
2023/03/11 09:30:21;;;;;;;4.53;2.57;;;11.20;99.90;;;;;;5026948;28;20025;-64
2023/03/11 09:32:47;;;;;;;2.87;2.53;;;11.20;99.90;;;;;;5025299;28;20037;-64
2023/03/11 09:35:12;;;;;;;2.83;1.80;;;11.30;99.90;;;;;;5029015;28;20037;-63
2023/03/11 09:37:38;;;;;;;4.53;1.70;;;11.20;99.90;;;;;;5026306;28;20394;-64
2023/03/11 09:40:04;;;;;;;1.70;1.30;;;11.00;99.90;;;;;;5018634;28;20033;-64
2023/03/11 09:42:56;;;;;;;2.33;1.83;;;10.90;99.90;;;;;;5033983;28;20025;-64
2023/03/11 09:45:27;;;;;;;2.15;1.60;;;10.80;99.90;;;;;;5029014;28;20036;-64
2023/03/11 09:48:25;;;;;;;2.13;1.75;;;10.90;99.90;;;;;;5029504;28;20079;-65
2023/03/11 09:51:13;;;;;;;2.50;1.70;;;11.00;99.90;;;;;;5024972;28;20075;-64
2023/03/11 09:53:42;;;;;;;1.85;1.70;;;11.10;99.90;;;;;;5020467;28;20044;-64
2023/03/11 09:56:21;;;;;;;1.92;1.70;;;11.10;99.90;;;;;;5023978;28;20108;-65
2023/03/11 09:58:48;;;;;;;4.47;1.70;;;11.00;99.90;;;;;;5030597;28;20068;-63
2023/03/11 10:01:32;;;;;;;2.75;2.33;;;11.00;99.90;;;;;;5028468;28;20483;-61
2023/03/11 10:04:21;;;;;;;6.13;2.35;;;11.10;99.90;;;;;;5026239;28;20040;-61
2023/03/11 10:06:47;;;;;;;3.40;2.10;;;11.20;99.90;;;;;;5031194;28;20111;-63
2023/03/11 10:09:47;;;;;;;3.78;2.40;;;11.10;99.90;;;;;;5027785;28;20100;-64
2023/03/11 10:12:33;;;;;;;3.72;2.45;;;11.20;99.90;;;;;;5011634;28;20033;-64
2023/03/11 10:15:17;;;;;;;3.42;2.70;;;11.10;99.90;;;;;;5028316;28;20086;-64
2023/03/11 10:18:21;;;;;;;2.55;2.35;;;11.10;99.90;;;;;;5021414;28;20022;-66
2023/03/11 10:20:46;;;;;;;3.42;2.90;;;11.30;99.90;;;;;;5026691;28;20059;-64
2023/03/11 10:23:45;;;;;;;2.97;2.50;;;11.40;99.90;;;;;;5028316;28;20047;-63
2023/03/11 10:26:39;;;;;;;4.47;2.90;;;11.50;99.90;;;;;;5025940;28;20033;-64
2023/03/11 10:29:31;;;;;;;2.30;2.10;;;11.80;99.90;;;;;;5029075;28;20025;-64
2023/03/11 10:32:19;;;;;;;2.63;2.40;;;11.80;99.90;;;;;;5025115;28;20040;-64
2023/03/11 10:34:56;;;;;;;3.63;2.80;;;11.80;99.90;;;;;;5026086;28;20041;-63
2023/03/11 10:37:41;;;;;;;4.57;2.90;;;11.90;99.90;;;;;;5031824;28;20433;-64
2023/03/11 10:40:23;;;;;;;3.10;2.33;;;11.90;99.90;;;;;;5028794;28;20486;-64
2023/03/11 10:42:50;;;;;;;3.03;2.70;;;11.70;99.90;;;;;;5024112;28;20033;-62
2023/03/11 10:45:18;;;;;;;3.40;2.70;;;11.80;99.90;;;;;;5025936;28;20120;-63
2023/03/11 10:47:44;;;;;;;5.03;3.17;;;11.90;99.90;;;;;;5025200;28;20024;-63
2023/03/11 10:50:17;;;;;;;3.33;2.73;;;12.00;99.90;;;;;;5031218;28;20041;-63
2023/03/11 10:53:09;;;;;;;3.08;2.78;;;12.10;99.90;;;;;;5027350;28;20045;-62
2023/03/11 10:55:45;;;;;;;2.80;2.60;;;12.40;99.90;;;;;;5026655;28;20069;-62
2023/03/11 10:58:14;;;;;;;4.97;3.15;;;12.80;99.90;;;;;;5028982;28;20460;-63
2023/03/11 11:00:40;;;;;;;3.17;2.83;;;12.80;99.90;;;;;;5025183;28;20083;-64
2023/03/11 11:03:15;;;;;;;4.40;3.13;;;12.90;99.90;;;;;;5028504;28;20553;-63
2023/03/11 11:05:41;;;;;;;5.53;2.90;;;12.80;99.90;;;;;;5027189;28;20026;-63
2023/03/11 11:08:16;;;;;;;3.40;3.10;;;12.80;99.90;;;;;;5030471;28;20527;-63
2023/03/11 11:11:15;;;;;;;4.10;2.55;;;13.00;99.90;;;;;;5020777;28;20037;-63
2023/03/11 11:13:55;;;;;;;2.90;2.20;;;12.90;99.90;;;;;;5023495;28;20083;-64
2023/03/11 11:16:21;;;;;;;3.17;2.70;;;13.50;99.90;;;;;;5023464;28;20029;-62
2023/03/11 11:19:01;;;;;;;4.30;3.90;;;13.60;99.90;;;;;;5026843;28;20032;-61
2023/03/11 11:22:00;;;;;;;2.40;2.20;;;13.60;99.90;;;;;;5002759;28;20300;-64
2023/03/11 11:24:28;;;;;;;2.15;1.98;;;13.60;99.90;;;;;;5015722;28;20513;-61
2023/03/11 11:27:15;;;;;;;3.22;2.50;;;13.90;99.90;;;;;;5027404;28;20046;-63
2023/03/11 11:29:42;;;;;;;4.88;3.55;;;14.30;99.90;;;;;;5029471;28;20036;-62
2023/03/11 11:32:18;;;;;;;5.15;2.78;;;14.00;99.90;;;;;;5027296;28;20517;-63
2023/03/11 11:34:53;;;;;;;4.82;3.63;;;13.70;99.90;;;;;;5027968;28;20069;-63
2023/03/11 11:37:21;;;;;;;4.55;2.92;;;13.50;99.90;;;;;;5032585;28;20094;-62
2023/03/11 11:39:51;;;;;;;3.17;2.70;;;13.30;99.90;;;;;;5032078;28;20024;-63
2023/03/11 11:42:22;;;;;;;2.78;2.50;;;13.60;99.90;;;;;;5028753;28;20021;-63
2023/03/11 11:44:55;;;;;;;2.58;2.35;;;13.40;99.90;;;;;;5029895;28;20090;-63
2023/03/11 11:47:26;;;;;;;3.22;2.92;;;13.40;99.90;;;;;;5028862;28;20585;-63
2023/03/11 11:49:55;;;;;;;3.42;3.13;;;13.80;99.90;;;;;;5028822;28;20025;-62
2023/03/11 11:52:30;;;;;;;3.80;3.42;;;13.90;99.90;;;;;;5023768;28;20052;-63
2023/03/11 11:55:17;;;;;;;5.18;4.00;;;13.60;99.90;;;;;;5021556;28;20032;-64
2023/03/11 11:57:43;;;;;;;4.22;3.47;;;13.90;99.90;;;;;;5029297;28;20034;-63
2023/03/11 12:00:24;;;;;;;4.23;3.73;;;13.60;99.90;;;;;;5020998;28;20136;-64
2023/03/11 12:02:56;;;;;;;3.92;3.50;;;13.70;99.90;;;;;;5026441;28;20052;-62
2023/03/11 12:05:29;;;;;;;4.72;4.20;;;13.50;99.90;;;;;;5029765;28;20026;-64
2023/03/11 12:08:14;;;;;;;5.88;4.40;;;13.40;99.90;;;;;;5025846;28;20025;-62
2023/03/11 12:11:03;;;;;;;4.65;4.20;;;13.50;99.90;;;;;;5023986;28;20120;-64
2023/03/11 12:13:49;;;;;;;4.07;3.28;;;13.30;99.90;;;;;;5027527;28;20077;-64
2023/03/11 12:16:57;;;;;;;5.15;4.35;;;13.30;99.90;;;;;;5026656;28;20060;-63
2023/03/11 12:19:50;;;;;;;5.40;4.00;;;13.30;99.90;;;;;;4969149;28;20042;-62
2023/03/11 12:22:57;;;;;;;4.55;3.75;;;13.00;99.90;;;;;;4966112;28;20042;-63
2023/03/11 12:25:28;;;;;;;6.43;4.38;;;12.80;99.90;;;;;;5014018;28;20033;-62
2023/03/11 12:28:14;;;;;;;5.35;4.65;;;12.80;99.90;;;;;;5025806;28;20091;-63
2023/03/11 12:30:46;;;;;;;4.70;4.30;;;12.90;99.90;;;;;;5027253;28;20036;-63
2023/03/11 12:33:35;;;;;;;4.97;4.47;;;13.00;99.90;;;;;;5027713;28;20030;-63
2023/03/11 12:36:03;;;;;;;6.50;5.55;;;13.30;99.90;;;;;;5029638;28;20028;-63
2023/03/11 12:38:38;;;;;;;7.53;5.60;;;13.30;99.90;;;;;;5026201;28;20069;-63
2023/03/11 12:41:26;;;;;;;6.65;5.18;;;13.40;99.90;;;;;;5028306;28;20104;-63
2023/03/11 12:43:51;;;;;;;8.57;5.43;;;13.50;99.90;;;;;;5027510;28;20681;-63
2023/03/11 12:46:17;;;;;;;9.17;5.10;;;13.60;99.90;;;;;;5029239;28;20033;-63
2023/03/11 12:49:13;;;;;;;5.63;3.83;;;13.80;99.90;;;;;;5027570;28;20041;-65
2023/03/11 12:51:40;;;;;;;4.57;4.03;;;13.40;99.90;;;;;;5027597;28;20026;-65
2023/03/11 12:54:31;;;;;;;4.18;3.78;;;13.40;99.90;;;;;;5029533;28;20041;-66
2023/03/11 12:57:22;;;;;;;4.20;3.22;;;13.30;99.90;;;;;;5034038;28;20033;-66
2023/03/11 13:00:18;;;;;;;5.00;3.17;;;13.30;99.90;;;;;;5029718;28;20029;-65
2023/03/11 13:03:05;;;;;;;3.95;3.38;;;13.30;99.90;;;;;;5027789;28;20026;-62
2023/03/11 13:06:23;;;;;;;3.83;3.43;;;13.30;99.90;;;;;;5026666;28;20034;-64
2023/03/11 13:08:53;;;;;;;6.60;5.10;;;13.10;99.90;;;;;;4997951;28;20140;-64